createdAt,value
2022-10-26T00:01:48.861Z,1.00
2022-10-26T00:06:50.752Z,1.35
2022-10-26T00:11:53.007Z,1.17
2022-10-26T00:16:55.102Z,0.77
2022-10-26T00:21:56.854Z,0.80
2022-10-26T00:26:58.621Z,0.90
2022-10-26T00:32:00.589Z,1.05
2022-10-26T00:37:02.374Z,2.00
2022-10-26T00:42:04.350Z,1.17
2022-10-26T00:47:06.528Z,1.05
2022-10-26T00:52:09.393Z,1.10
2022-10-26T00:57:13.825Z,1.45
2022-10-26T01:02:15.800Z,1.00
2022-10-26T01:07:17.772Z,1.13
2022-10-26T01:12:19.583Z,1.27
2022-10-26T01:17:57.112Z,1.08
2022-10-26T01:23:19.196Z,1.02
2022-10-26T01:28:47.034Z,1.10
2022-10-26T01:34:04.087Z,1.05
2022-10-26T01:39:09.048Z,1.15
2022-10-26T01:44:16.797Z,1.20
2022-10-26T01:49:23.124Z,1.23
2022-10-26T01:54:24.976Z,0.80
2022-10-26T01:59:45.705Z,1.02
2022-10-26T02:10:09.842Z,0.93
2022-10-26T02:15:27.185Z,0.73
2022-10-26T02:20:33.933Z,0.70
2022-10-26T02:25:42.194Z,1.00
2022-10-26T02:30:45.523Z,0.98
2022-10-26T02:35:50.994Z,0.82
2022-10-26T02:40:54.524Z,1.10
2022-10-26T02:46:14.026Z,0.77
2022-10-26T02:51:34.832Z,1.00
2022-10-26T02:56:51.737Z,1.08
2022-10-26T03:01:54.163Z,0.93
2022-10-26T03:06:55.989Z,1.08
2022-10-26T03:11:57.780Z,1.10
2022-10-26T03:16:59.599Z,1.15
2022-10-26T03:22:01.395Z,0.98
2022-10-26T03:27:03.285Z,0.65
2022-10-26T03:32:05.467Z,1.25
2022-10-26T03:37:07.261Z,0.90
2022-10-26T03:42:09.069Z,1.13
2022-10-26T03:47:10.848Z,0.90
2022-10-26T03:52:12.668Z,1.10
2022-10-26T03:57:14.462Z,0.85
2022-10-26T04:02:16.517Z,0.90
2022-10-26T04:07:18.376Z,1.00
2022-10-26T04:12:20.241Z,1.02
2022-10-26T04:17:22.022Z,0.90
2022-10-26T04:22:23.837Z,1.00
2022-10-26T04:27:25.623Z,1.08
2022-10-26T04:32:27.636Z,1.13
2022-10-26T04:37:29.482Z,1.10
2022-10-26T04:42:37.742Z,1.30
2022-10-26T04:47:39.760Z,1.08
2022-10-26T04:52:41.622Z,1.27
2022-10-26T04:57:45.144Z,1.25
2022-10-26T05:02:46.987Z,1.38
2022-10-26T05:07:56.940Z,1.30
2022-10-26T05:13:00.288Z,1.65
2022-10-26T05:18:05.550Z,1.35
2022-10-26T05:23:11.590Z,1.13
2022-10-26T05:28:14.980Z,0.90
2022-10-26T05:33:16.927Z,1.15
2022-10-26T05:38:18.781Z,1.20
2022-10-26T05:43:23.220Z,1.20
2022-10-26T05:48:25.010Z,1.13
2022-10-26T05:53:27.136Z,1.13
2022-10-26T05:58:29.238Z,1.10
2022-10-26T06:03:56.914Z,0.90
2022-10-26T06:08:58.981Z,1.10
2022-10-26T06:14:01.333Z,1.50
2022-10-26T06:19:21.644Z,1.30
2022-10-26T06:24:29.585Z,1.10
2022-10-26T06:29:54.679Z,1.73
2022-10-26T06:35:06.921Z,1.15
2022-10-26T06:40:11.211Z,1.40
2022-10-26T06:50:21.516Z,1.38
2022-10-26T06:55:23.841Z,1.20
2022-10-26T07:00:26.099Z,1.10
2022-10-26T07:05:28.252Z,1.45
2022-10-26T07:10:30.258Z,1.20
2022-10-26T07:15:32.601Z,1.02
2022-10-26T07:20:39.644Z,1.13
2022-10-26T07:25:41.833Z,1.10
2022-10-26T07:30:43.728Z,0.85
2022-10-26T07:35:46.666Z,1.05
2022-10-26T07:40:50.725Z,1.00
2022-10-26T07:45:52.761Z,1.00
2022-10-26T07:50:54.843Z,0.90
2022-10-26T07:55:58.004Z,0.80
2022-10-26T08:01:07.659Z,1.20
2022-10-26T08:06:10.626Z,1.00
2022-10-26T08:11:12.470Z,1.30
2022-10-26T08:16:14.469Z,1.13
2022-10-26T08:21:21.797Z,1.23
2022-10-26T08:26:28.374Z,1.17
2022-10-26T08:31:30.489Z,0.93
2022-10-26T08:36:32.332Z,0.95
2022-10-26T08:41:38.012Z,1.10
2022-10-26T08:46:45.762Z,1.33
2022-10-26T08:51:51.105Z,1.17
2022-10-26T08:56:57.562Z,1.40
2022-10-26T09:02:04.812Z,1.40
2022-10-26T09:07:26.283Z,1.60
2022-10-26T09:12:52.401Z,1.70
2022-10-26T09:18:12.998Z,4.07
2022-10-26T09:23:42.085Z,2.60
2022-10-26T09:28:48.251Z,2.70
2022-10-26T09:33:51.600Z,2.65
2022-10-26T09:39:22.507Z,2.90
2022-10-26T09:44:45.053Z,3.15
2022-10-26T09:49:55.920Z,2.40
2022-10-26T09:54:57.710Z,2.55
2022-10-26T09:59:59.632Z,2.35
2022-10-26T10:05:02.075Z,2.70
2022-10-26T10:10:17.080Z,2.40
2022-10-26T10:15:24.133Z,2.60
2022-10-26T10:20:32.846Z,1.75
2022-10-26T10:25:37.729Z,1.45
2022-10-26T10:30:53.561Z,1.27
2022-10-26T10:35:55.409Z,1.10
2022-10-26T10:40:59.817Z,0.70
2022-10-26T10:46:01.832Z,0.40
2022-10-26T10:51:12.585Z,0.50
2022-10-26T10:56:27.722Z,1.05
2022-10-26T11:01:40.814Z,0.80
2022-10-26T11:06:45.166Z,1.00
2022-10-26T11:12:10.378Z,0.80
2022-10-26T11:17:25.870Z,1.23
2022-10-26T11:22:59.414Z,1.00
2022-10-26T11:28:16.620Z,0.75
2022-10-26T11:33:31.152Z,1.10
2022-10-26T11:38:59.940Z,0.77
2022-10-26T11:44:22.339Z,0.80
2022-10-26T11:49:43.002Z,1.00
2022-10-26T11:54:53.447Z,0.73
2022-10-26T12:05:08.244Z,0.75
2022-10-26T12:10:26.087Z,0.77
2022-10-26T12:16:05.910Z,0.75
2022-10-26T12:21:09.835Z,0.88
2022-10-26T12:26:34.701Z,0.68
2022-10-26T12:31:36.455Z,0.70
2022-10-26T12:36:56.685Z,0.90
2022-10-26T12:42:04.458Z,0.65
2022-10-26T12:47:06.654Z,0.65
2022-10-26T12:52:19.938Z,0.77
2022-10-26T12:57:55.826Z,0.77
2022-10-26T13:03:22.166Z,0.77
2022-10-26T13:08:24.844Z,1.20
2022-10-26T13:13:26.996Z,0.70
2022-10-26T13:18:30.113Z,1.08
2022-10-26T13:23:34.941Z,1.23
2022-10-26T13:28:39.779Z,0.90
2022-10-26T13:33:43.454Z,2.03
2022-10-26T13:38:47.266Z,1.40
2022-10-26T13:43:51.595Z,0.80
2022-10-26T13:49:01.633Z,1.10
2022-10-26T13:54:14.255Z,1.60
2022-10-26T13:59:16.260Z,2.03
2022-10-26T14:04:28.745Z,1.35
2022-10-26T14:09:31.184Z,0.73
2022-10-26T14:14:36.371Z,1.27
2022-10-26T14:19:40.963Z,0.75
2022-10-26T14:24:52.027Z,0.93
2022-10-26T14:30:22.147Z,0.70
2022-10-26T14:35:18.416Z,1.13
2022-10-26T14:40:23.823Z,0.70
2022-10-26T14:45:50.441Z,0.82
2022-10-26T14:51:03.881Z,0.70
2022-10-26T14:56:18.175Z,0.65
2022-10-26T15:01:23.123Z,0.82
2022-10-26T15:06:28.275Z,0.98
2022-10-26T15:11:32.187Z,1.70
2022-10-26T15:16:35.291Z,1.75
2022-10-26T15:21:41.708Z,1.80
2022-10-26T15:26:43.790Z,1.48
2022-10-26T15:31:45.623Z,1.88
2022-10-26T15:36:47.433Z,2.97
2022-10-26T15:41:49.523Z,3.00
2022-10-26T15:46:51.467Z,3.47
2022-10-26T15:51:53.471Z,1.70
2022-10-26T15:56:56.257Z,1.27
2022-10-26T16:01:58.340Z,1.55
2022-10-26T16:07:05.485Z,1.38
2022-10-26T16:12:11.730Z,1.77
2022-10-26T16:17:13.591Z,2.50
2022-10-26T16:22:15.427Z,1.90
2022-10-26T16:27:17.547Z,2.63
2022-10-26T16:32:19.372Z,2.20
2022-10-26T16:37:21.187Z,2.75
2022-10-26T16:42:22.974Z,2.55
2022-10-26T16:47:25.664Z,2.60
2022-10-26T16:52:27.467Z,3.15
2022-10-26T16:57:29.337Z,2.90
2022-10-26T17:02:31.240Z,3.13
2022-10-26T17:07:33.241Z,3.22
2022-10-26T17:12:35.063Z,6.07
2022-10-26T17:17:36.912Z,4.30
2022-10-26T17:22:38.782Z,4.47
2022-10-26T17:27:44.877Z,4.57
2022-10-26T17:32:48.897Z,3.08
2022-10-26T17:37:51.140Z,3.97
2022-10-26T17:42:53.595Z,4.25
2022-10-26T17:47:55.898Z,4.20
2022-10-26T17:52:57.718Z,3.97
2022-10-26T17:57:59.580Z,3.30
2022-10-26T18:03:01.369Z,3.97
2022-10-26T18:08:03.529Z,3.08
2022-10-26T18:13:05.354Z,3.15
2022-10-26T18:18:07.157Z,3.13
2022-10-26T18:23:09.109Z,2.88
2022-10-26T18:33:13.770Z,2.80
2022-10-26T18:38:15.561Z,2.78
2022-10-26T18:43:17.414Z,2.50
2022-10-26T18:48:19.408Z,2.63
2022-10-26T18:53:21.378Z,2.38
2022-10-26T18:58:23.242Z,2.63
2022-10-26T19:03:25.020Z,2.17
2022-10-26T19:08:27.993Z,2.33
2022-10-26T19:13:30.625Z,2.65
2022-10-26T19:18:33.302Z,2.22
2022-10-26T19:23:38.266Z,2.42
2022-10-26T19:28:40.659Z,2.28
2022-10-26T19:33:42.523Z,2.95
2022-10-26T19:38:44.741Z,2.38
2022-10-26T19:43:46.625Z,2.47
2022-10-26T19:48:54.103Z,2.72
2022-10-26T19:53:57.951Z,3.00
2022-10-26T19:59:03.365Z,2.13
2022-10-26T20:04:06.359Z,3.05
2022-10-26T20:09:08.324Z,2.72
2022-10-26T20:14:13.765Z,2.42
2022-10-26T20:19:15.598Z,2.72
2022-10-26T20:24:17.413Z,2.65
2022-10-26T20:29:19.949Z,2.50
2022-10-26T20:34:21.931Z,2.67
2022-10-26T20:39:24.393Z,2.72
2022-10-26T20:44:31.877Z,2.45
2022-10-26T20:49:33.890Z,3.17
2022-10-26T20:54:48.206Z,2.85
2022-10-26T20:59:56.031Z,2.53
2022-10-26T21:04:58.018Z,3.08
2022-10-26T21:09:59.933Z,3.10
2022-10-26T21:15:01.839Z,3.10
2022-10-26T21:20:03.815Z,3.15
2022-10-26T21:25:06.067Z,3.05
2022-10-26T21:30:08.589Z,2.70
2022-10-26T21:35:10.500Z,3.35
2022-10-26T21:40:13.366Z,2.88
2022-10-26T21:45:15.185Z,3.05
2022-10-26T21:50:17.178Z,2.70
2022-10-26T21:55:19.053Z,2.63
2022-10-26T22:00:20.886Z,3.10
2022-10-26T22:05:22.727Z,3.33
2022-10-26T22:10:24.584Z,2.95
2022-10-26T22:15:26.375Z,3.40
2022-10-26T22:20:28.171Z,3.05
2022-10-26T22:25:32.214Z,2.83
2022-10-26T22:30:36.860Z,2.83
2022-10-26T22:35:38.669Z,2.55
2022-10-26T22:40:40.418Z,2.70
2022-10-26T22:45:42.156Z,2.45
2022-10-26T22:50:43.915Z,3.13
2022-10-26T22:55:45.936Z,2.50
2022-10-26T23:00:47.736Z,3.00
2022-10-26T23:05:49.600Z,3.45
2022-10-26T23:10:51.494Z,3.30
2022-10-26T23:15:53.262Z,3.60
2022-10-26T23:20:55.036Z,2.78
2022-10-26T23:26:04.260Z,2.90
2022-10-26T23:31:06.827Z,2.20
2022-10-26T23:36:08.560Z,2.55
2022-10-26T23:41:12.842Z,2.72
2022-10-26T23:46:15.118Z,2.90
2022-10-26T23:51:16.907Z,3.65
2022-10-26T23:56:18.648Z,2.45
